createdAt,value
2022-11-28T00:01:38.257Z,6.40
2022-11-28T00:04:08.430Z,6.40
2022-11-28T00:06:38.783Z,6.50
2022-11-28T00:09:08.988Z,6.40
2022-11-28T00:11:37.098Z,6.40
2022-11-28T00:14:05.144Z,6.40
2022-11-28T00:16:33.486Z,6.40
2022-11-28T00:19:02.531Z,6.40
2022-11-28T00:21:31.324Z,6.40
2022-11-28T00:24:00.170Z,6.40
2022-11-28T00:26:31.429Z,6.40
2022-11-28T00:29:00.504Z,6.40
2022-11-28T00:31:30.364Z,6.40
2022-11-28T00:33:59.001Z,6.40
2022-11-28T00:36:27.082Z,6.40
2022-11-28T00:38:55.159Z,6.40
2022-11-28T00:41:28.430Z,6.40
2022-11-28T00:43:58.463Z,6.40
2022-11-28T00:46:26.891Z,6.40
2022-11-28T00:48:55.478Z,6.30
2022-11-28T00:51:26.147Z,6.30
2022-11-28T00:53:57.002Z,6.30
2022-11-28T00:56:26.960Z,6.40
2022-11-28T00:58:55.068Z,6.30
2022-11-28T01:01:26.217Z,6.30
2022-11-28T01:03:57.547Z,6.30
2022-11-28T01:06:27.974Z,6.30
2022-11-28T01:08:56.694Z,6.30
2022-11-28T01:11:24.877Z,6.40
2022-11-28T01:13:55.050Z,6.30
2022-11-28T01:16:25.148Z,6.30
2022-11-28T01:18:53.296Z,6.30
2022-11-28T01:21:22.155Z,6.30
2022-11-28T01:23:50.166Z,6.20
2022-11-28T01:26:20.126Z,6.30
2022-11-28T01:28:48.351Z,6.20
2022-11-28T01:31:19.220Z,6.20
2022-11-28T01:33:48.825Z,6.30
2022-11-28T01:36:17.512Z,6.30
2022-11-28T01:38:45.622Z,6.20
2022-11-28T01:41:14.305Z,6.20
2022-11-28T01:44:01.384Z,6.20
2022-11-28T01:46:30.639Z,6.20
2022-11-28T01:49:04.176Z,6.20
2022-11-28T01:51:33.096Z,6.20
2022-11-28T01:54:01.705Z,6.20
2022-11-28T01:56:39.311Z,6.20
2022-11-28T01:59:11.829Z,6.20
2022-11-28T02:01:40.928Z,6.20
2022-11-28T02:04:10.654Z,6.20
2022-11-28T02:06:38.751Z,6.40
2022-11-28T02:09:10.516Z,6.20
2022-11-28T02:12:00.157Z,6.20
2022-11-28T02:14:41.984Z,6.20
2022-11-28T02:17:20.339Z,6.20
2022-11-28T02:20:23.139Z,6.20
2022-11-28T02:22:59.960Z,6.20
2022-11-28T02:26:00.505Z,6.20
2022-11-28T02:29:06.909Z,6.20
2022-11-28T02:32:02.947Z,6.20
2022-11-28T02:34:44.363Z,6.20
2022-11-28T02:37:23.795Z,6.20
2022-11-28T02:40:03.243Z,6.20
2022-11-28T02:42:40.275Z,6.20
2022-11-28T02:45:12.057Z,6.20
2022-11-28T02:47:44.655Z,6.20
2022-11-28T02:50:18.147Z,6.20
2022-11-28T02:52:49.451Z,6.20
2022-11-28T02:55:18.116Z,6.20
2022-11-28T02:57:50.177Z,6.20
2022-11-28T03:00:30.023Z,6.20
2022-11-28T03:03:16.135Z,6.20
2022-11-28T03:05:52.552Z,6.20
2022-11-28T03:08:38.430Z,6.20
2022-11-28T03:11:16.517Z,6.20
2022-11-28T03:13:55.619Z,6.30
2022-11-28T03:16:29.274Z,6.30
2022-11-28T03:19:04.704Z,6.30
2022-11-28T03:21:41.810Z,6.20
2022-11-28T03:24:16.927Z,6.30
2022-11-28T03:26:53.723Z,6.30
2022-11-28T03:29:26.472Z,6.30
2022-11-28T03:31:58.541Z,6.30
2022-11-28T03:34:32.948Z,6.30
2022-11-28T03:37:07.260Z,6.30
2022-11-28T03:39:40.123Z,6.30
2022-11-28T03:42:12.677Z,6.20
2022-11-28T03:44:45.393Z,6.30
2022-11-28T03:47:13.472Z,6.30
2022-11-28T03:49:46.692Z,6.30
2022-11-28T03:52:23.967Z,6.30
2022-11-28T03:54:54.415Z,6.30
2022-11-28T03:57:29.825Z,6.30
2022-11-28T04:00:02.378Z,6.30
2022-11-28T04:02:48.883Z,6.30
2022-11-28T04:05:23.704Z,6.30
2022-11-28T04:07:57.463Z,6.30
2022-11-28T04:10:32.945Z,6.30
2022-11-28T04:13:06.896Z,6.30
2022-11-28T04:15:40.624Z,6.30
2022-11-28T04:18:19.932Z,6.30
2022-11-28T04:20:53.002Z,6.30
2022-11-28T04:23:23.871Z,6.30
2022-11-28T04:25:56.423Z,6.30
2022-11-28T04:28:28.861Z,6.30
2022-11-28T04:30:59.954Z,6.20
2022-11-28T04:33:30.420Z,6.30
2022-11-28T04:35:59.985Z,6.30
2022-11-28T04:38:30.962Z,6.30
2022-11-28T04:41:06.049Z,6.20
2022-11-28T04:43:40.476Z,6.30
2022-11-28T04:46:11.325Z,6.30
2022-11-28T04:48:39.838Z,6.30
2022-11-28T04:51:15.321Z,6.30
2022-11-28T04:53:51.141Z,6.30
2022-11-28T04:56:23.344Z,6.30
2022-11-28T04:58:52.316Z,6.30
2022-11-28T05:01:26.495Z,6.30
2022-11-28T05:03:55.281Z,6.30
2022-11-28T05:06:26.636Z,6.20
2022-11-28T05:08:56.515Z,6.30
2022-11-28T05:11:25.007Z,6.20
2022-11-28T05:13:53.366Z,6.30
2022-11-28T05:16:21.600Z,6.20
2022-11-28T05:18:49.961Z,6.30
2022-11-28T05:21:18.007Z,6.30
2022-11-28T05:23:46.442Z,6.30
2022-11-28T05:26:17.776Z,6.30
2022-11-28T05:28:46.663Z,6.20
2022-11-28T05:31:15.234Z,6.30
2022-11-28T05:33:43.340Z,6.30
2022-11-28T05:36:14.134Z,6.30
2022-11-28T05:38:42.872Z,6.30
2022-11-28T05:41:11.600Z,6.30
2022-11-28T05:43:41.032Z,6.20
2022-11-28T05:46:09.281Z,6.20
2022-11-28T05:48:37.376Z,6.30
2022-11-28T05:51:06.012Z,6.30
2022-11-28T05:53:34.156Z,6.20
2022-11-28T05:56:07.800Z,6.30
2022-11-28T05:58:36.067Z,6.20
2022-11-28T06:01:13.093Z,6.30
2022-11-28T06:03:41.288Z,6.30
2022-11-28T06:06:14.257Z,6.20
2022-11-28T06:08:42.506Z,6.20
2022-11-28T06:11:11.171Z,6.30
2022-11-28T06:13:39.255Z,6.20
2022-11-28T06:16:09.522Z,6.20
2022-11-28T06:18:39.233Z,6.20
2022-11-28T06:21:11.851Z,6.20
2022-11-28T06:23:40.740Z,6.20
2022-11-28T06:26:11.082Z,6.20
2022-11-28T06:28:39.794Z,6.20
2022-11-28T06:31:11.979Z,6.20
2022-11-28T06:33:41.854Z,6.20
2022-11-28T06:36:13.935Z,6.20
2022-11-28T06:38:42.141Z,6.20
2022-11-28T06:41:15.772Z,6.20
2022-11-28T06:43:44.273Z,6.10
2022-11-28T06:46:15.951Z,6.20
2022-11-28T06:48:46.204Z,6.10
2022-11-28T06:51:14.941Z,6.10
2022-11-28T06:53:43.150Z,6.20
2022-11-28T06:56:13.931Z,6.10
2022-11-28T06:58:42.566Z,6.10
2022-11-28T07:01:13.180Z,6.20
2022-11-28T07:03:41.992Z,6.30
2022-11-28T07:06:12.219Z,6.10
2022-11-28T07:08:40.463Z,6.10
2022-11-28T07:11:12.568Z,6.10
2022-11-28T07:13:41.288Z,6.20
2022-11-28T07:16:14.177Z,6.10
2022-11-28T07:18:42.407Z,6.10
2022-11-28T07:21:12.533Z,6.10
2022-11-28T07:23:40.677Z,6.10
2022-11-28T07:26:09.340Z,6.10
2022-11-28T07:28:37.411Z,6.10
2022-11-28T07:31:07.628Z,6.10
2022-11-28T07:33:35.941Z,6.10
2022-11-28T07:36:05.489Z,6.10
2022-11-28T07:38:35.372Z,6.10
2022-11-28T07:41:08.262Z,6.10
2022-11-28T07:43:36.327Z,6.10
2022-11-28T07:46:08.683Z,6.10
2022-11-28T07:48:39.243Z,6.10
2022-11-28T07:51:08.484Z,6.10
2022-11-28T07:53:38.181Z,6.10
2022-11-28T07:56:08.845Z,6.10
2022-11-28T07:58:38.988Z,6.10
2022-11-28T08:01:10.281Z,6.10
2022-11-28T08:03:38.533Z,6.10
2022-11-28T08:06:08.099Z,6.10
2022-11-28T08:08:38.401Z,6.10
2022-11-28T08:11:09.627Z,6.10
2022-11-28T08:13:39.946Z,6.10
2022-11-28T08:16:09.978Z,6.10
2022-11-28T08:18:38.226Z,6.10
2022-11-28T08:21:07.649Z,6.10
2022-11-28T08:23:38.631Z,6.10
2022-11-28T08:26:08.727Z,6.10
2022-11-28T08:28:37.139Z,6.10
2022-11-28T08:31:11.100Z,6.10
2022-11-28T08:33:39.658Z,6.10
2022-11-28T08:36:09.159Z,6.10
2022-11-28T08:38:39.441Z,6.10
2022-11-28T08:41:10.597Z,6.10
2022-11-28T08:43:39.764Z,6.10
2022-11-28T08:46:10.879Z,6.10
2022-11-28T08:48:39.714Z,6.10
2022-11-28T08:51:09.515Z,6.10
2022-11-28T08:53:38.961Z,6.20
2022-11-28T08:56:08.072Z,6.20
2022-11-28T08:58:36.211Z,6.20
2022-11-28T09:01:05.145Z,6.20
2022-11-28T09:03:33.395Z,6.20
2022-11-28T09:06:03.136Z,6.20
2022-11-28T09:08:31.306Z,6.20
2022-11-28T09:11:00.717Z,6.20
2022-11-28T09:13:28.875Z,6.20
2022-11-28T09:15:58.679Z,6.20
2022-11-28T09:18:27.636Z,6.20
2022-11-28T09:20:59.376Z,6.20
2022-11-28T09:23:28.014Z,6.20
2022-11-28T09:25:56.307Z,6.20
2022-11-28T09:28:28.681Z,6.20
2022-11-28T09:31:02.437Z,6.20
2022-11-28T09:33:30.863Z,6.20
2022-11-28T09:35:59.360Z,6.20
2022-11-28T09:38:27.724Z,6.20
2022-11-28T09:40:55.884Z,6.20
2022-11-28T09:43:32.111Z,6.20
2022-11-28T09:46:03.729Z,6.20
2022-11-28T09:48:36.059Z,6.20
2022-11-28T09:51:08.267Z,6.30
2022-11-28T09:53:42.802Z,6.20
2022-11-28T09:56:15.365Z,6.20
2022-11-28T09:58:51.417Z,6.30
2022-11-28T10:01:26.700Z,6.20
2022-11-28T10:04:00.714Z,6.30
2022-11-28T10:06:38.704Z,6.30
2022-11-28T10:09:23.641Z,6.30
2022-11-28T10:12:02.535Z,6.30
2022-11-28T10:15:02.936Z,6.30
2022-11-28T10:17:43.270Z,6.30
2022-11-28T10:20:16.788Z,6.30
2022-11-28T10:22:49.428Z,6.30
2022-11-28T10:25:21.285Z,6.30
2022-11-28T10:27:53.191Z,6.30
2022-11-28T10:30:25.720Z,6.30
2022-11-28T10:33:10.520Z,6.40
2022-11-28T10:35:45.516Z,6.40
2022-11-28T10:38:14.440Z,6.40
2022-11-28T10:40:49.618Z,6.40
2022-11-28T10:43:31.161Z,6.40
2022-11-28T10:46:14.902Z,6.50
2022-11-28T10:48:50.490Z,6.50
2022-11-28T10:51:29.528Z,6.40
2022-11-28T10:54:16.919Z,6.50
2022-11-28T10:56:52.413Z,6.50
2022-11-28T10:59:29.601Z,6.50
2022-11-28T11:01:59.156Z,6.50
2022-11-28T11:04:29.193Z,6.60
2022-11-28T11:07:16.305Z,6.60
2022-11-28T11:09:46.563Z,6.60
2022-11-28T11:12:22.134Z,6.60
2022-11-28T11:14:52.731Z,6.90
2022-11-28T11:17:37.702Z,6.60
2022-11-28T11:20:28.306Z,6.60
2022-11-28T11:22:56.969Z,6.70
2022-11-28T11:25:27.101Z,6.60
2022-11-28T11:27:57.811Z,6.70
2022-11-28T11:30:29.218Z,6.70
2022-11-28T11:32:59.632Z,6.70
2022-11-28T11:35:32.243Z,6.70
2022-11-28T11:38:18.242Z,6.80
2022-11-28T11:40:46.437Z,6.80
2022-11-28T11:43:27.626Z,6.80
2022-11-28T11:46:09.964Z,6.80
2022-11-28T11:48:40.324Z,6.80
2022-11-28T11:51:23.558Z,6.90
2022-11-28T11:54:02.980Z,6.90
2022-11-28T11:56:37.371Z,6.90
2022-11-28T11:59:13.279Z,6.90
2022-11-28T12:01:43.236Z,6.90
2022-11-28T12:04:43.788Z,6.90
2022-11-28T12:07:27.369Z,6.90
2022-11-28T12:10:04.110Z,6.90
2022-11-28T12:12:37.662Z,6.90
2022-11-28T12:15:17.388Z,6.90
2022-11-28T12:21:02.942Z,6.90
2022-11-28T12:23:58.621Z,6.90
2022-11-28T12:26:34.766Z,6.90
2022-11-28T12:29:23.170Z,6.90
2022-11-28T12:31:57.044Z,6.90
2022-11-28T12:34:34.642Z,6.90
2022-11-28T12:37:15.414Z,6.90
2022-11-28T12:39:56.538Z,6.90
2022-11-28T12:42:37.868Z,6.90
2022-11-28T12:45:20.504Z,6.90
2022-11-28T12:47:56.431Z,6.90
2022-11-28T12:50:33.547Z,6.90
2022-11-28T12:53:18.965Z,6.90
2022-11-28T12:55:57.683Z,6.90
2022-11-28T12:58:30.747Z,6.90
2022-11-28T13:01:13.879Z,6.90
2022-11-28T13:04:00.388Z,6.90
2022-11-28T13:06:37.804Z,6.90
2022-11-28T13:09:21.339Z,6.90
2022-11-28T13:12:01.095Z,6.90
2022-11-28T13:14:39.190Z,6.90
2022-11-28T13:17:20.681Z,6.90
2022-11-28T13:19:57.229Z,6.90
2022-11-28T13:22:30.104Z,6.90
2022-11-28T13:25:01.867Z,6.90
2022-11-28T13:27:37.942Z,6.90
2022-11-28T13:30:17.595Z,6.90
2022-11-28T13:32:50.712Z,6.90
2022-11-28T13:35:20.296Z,6.90
2022-11-28T13:40:50.552Z,6.90
2022-11-28T13:43:28.210Z,6.90
2022-11-28T13:45:57.098Z,6.90
2022-11-28T13:49:16.095Z,6.90
2022-11-28T13:51:48.925Z,6.90
2022-11-28T13:54:48.825Z,6.90
2022-11-28T13:57:37.965Z,6.90
2022-11-28T14:00:23.797Z,6.90
2022-11-28T14:02:55.078Z,6.90
2022-11-28T14:05:30.414Z,6.90
2022-11-28T14:07:59.486Z,6.80
2022-11-28T14:10:40.367Z,6.90
2022-11-28T14:13:24.575Z,6.90
2022-11-28T14:16:07.801Z,6.80
2022-11-28T14:18:58.688Z,6.80
2022-11-28T14:21:38.627Z,6.80
2022-11-28T14:24:15.926Z,6.80
2022-11-28T14:26:45.676Z,6.80
2022-11-28T14:29:22.519Z,6.80
2022-11-28T14:32:27.860Z,6.80
2022-11-28T14:34:45.805Z,6.80
2022-11-28T14:37:50.107Z,6.80
2022-11-28T14:41:04.353Z,6.80
2022-11-28T14:43:33.752Z,6.70
2022-11-28T14:46:35.538Z,6.80
2022-11-28T14:49:20.911Z,6.70
2022-11-28T14:52:36.976Z,6.70
2022-11-28T14:54:57.372Z,6.70
2022-11-28T14:57:28.246Z,6.70
2022-11-28T14:59:59.856Z,6.70
2022-11-28T15:02:47.510Z,6.70
2022-11-28T15:05:29.111Z,6.70
2022-11-28T15:08:22.568Z,6.70
2022-11-28T15:10:58.435Z,6.70
2022-11-28T15:13:43.647Z,6.70
2022-11-28T15:16:14.153Z,6.60
2022-11-28T15:18:50.578Z,6.60
2022-11-28T15:21:21.883Z,6.60
2022-11-28T15:23:52.519Z,6.60
2022-11-28T15:26:23.605Z,6.60
2022-11-28T15:29:09.333Z,6.60
2022-11-28T15:31:38.536Z,6.60
2022-11-28T15:34:10.002Z,6.60
2022-11-28T15:36:40.386Z,6.60
2022-11-28T15:39:26.835Z,6.60
2022-11-28T15:41:56.874Z,6.60
2022-11-28T15:44:25.181Z,6.60
2022-11-28T15:46:54.095Z,6.60
2022-11-28T15:49:31.683Z,6.60
2022-11-28T15:52:02.934Z,6.60
2022-11-28T15:54:38.465Z,6.60
2022-11-28T15:57:07.916Z,6.60
2022-11-28T15:59:36.805Z,6.60
2022-11-28T16:02:15.910Z,6.60
2022-11-28T16:04:46.299Z,6.60
2022-11-28T16:07:17.280Z,6.60
2022-11-28T16:09:57.476Z,6.60
2022-11-28T16:12:26.176Z,6.60
2022-11-28T16:14:58.776Z,6.60
2022-11-28T16:17:29.763Z,6.50
2022-11-28T16:19:58.493Z,6.50
2022-11-28T16:22:34.834Z,6.50
2022-11-28T16:25:14.892Z,6.50
2022-11-28T16:27:45.671Z,6.60
2022-11-28T16:30:27.642Z,6.60
2022-11-28T16:32:56.797Z,6.50
2022-11-28T16:35:30.828Z,6.50
2022-11-28T16:38:07.947Z,6.50
2022-11-28T16:40:36.104Z,6.50
2022-11-28T16:43:07.879Z,6.50
2022-11-28T16:45:36.083Z,6.50
2022-11-28T16:48:09.447Z,6.50
2022-11-28T16:50:38.528Z,6.50
2022-11-28T16:53:07.995Z,6.50
2022-11-28T16:55:41.637Z,6.50
2022-11-28T16:58:23.719Z,6.50
2022-11-28T17:01:04.023Z,6.50
2022-11-28T17:03:44.645Z,6.50
2022-11-28T17:06:34.085Z,6.50
2022-11-28T17:09:04.729Z,6.50
2022-11-28T17:11:36.180Z,6.40
2022-11-28T17:14:10.095Z,6.50
2022-11-28T17:16:40.857Z,6.50
2022-11-28T17:19:09.540Z,6.40
2022-11-28T17:21:41.244Z,6.40
2022-11-28T17:24:17.580Z,6.40
2022-11-28T17:26:45.731Z,6.40
2022-11-28T17:29:15.831Z,6.40
2022-11-28T17:31:46.716Z,6.40
2022-11-28T17:34:17.427Z,6.40
2022-11-28T17:36:45.929Z,6.40
2022-11-28T17:39:15.843Z,6.40
2022-11-28T17:41:44.684Z,6.40
2022-11-28T17:44:18.649Z,6.40
2022-11-28T17:46:47.175Z,6.40
2022-11-28T17:49:15.429Z,6.40
2022-11-28T17:51:44.344Z,6.40
2022-11-28T17:54:16.668Z,6.40
2022-11-28T17:56:44.922Z,6.40
2022-11-28T17:59:14.409Z,6.40
2022-11-28T18:01:43.076Z,6.40
2022-11-28T18:04:11.265Z,6.40
2022-11-28T18:06:39.575Z,6.40
2022-11-28T18:09:11.891Z,6.40
2022-11-28T18:11:42.859Z,6.40
2022-11-28T18:14:11.484Z,6.40
2022-11-28T18:16:42.934Z,6.40
2022-11-28T18:19:11.948Z,6.40
2022-11-28T18:21:40.277Z,6.40
2022-11-28T18:24:09.315Z,6.40
2022-11-28T18:26:37.750Z,6.40
2022-11-28T18:29:08.008Z,6.50
2022-11-28T18:31:36.855Z,6.40
2022-11-28T18:34:09.507Z,6.40
2022-11-28T18:36:38.981Z,6.40
2022-11-28T18:39:09.994Z,6.40
2022-11-28T18:41:39.801Z,6.40
2022-11-28T18:44:12.419Z,6.40
2022-11-28T18:46:40.983Z,6.40
2022-11-28T18:49:15.086Z,6.40
2022-11-28T18:51:43.608Z,6.40
2022-11-28T18:54:14.031Z,6.40
2022-11-28T18:56:45.851Z,6.40
2022-11-28T18:59:15.413Z,6.40
2022-11-28T19:01:44.754Z,6.40
2022-11-28T19:04:15.480Z,6.40
2022-11-28T19:06:45.281Z,6.40
2022-11-28T19:09:15.347Z,6.40
2022-11-28T19:11:44.188Z,6.40
2022-11-28T19:14:16.816Z,6.40
2022-11-28T19:16:45.743Z,6.40
2022-11-28T19:19:17.977Z,6.40
2022-11-28T19:21:48.523Z,6.40
2022-11-28T19:24:17.294Z,6.40
2022-11-28T19:26:45.435Z,6.40
2022-11-28T19:29:15.340Z,6.40
2022-11-28T19:31:44.052Z,6.40
2022-11-28T19:34:14.349Z,6.40
2022-11-28T19:36:43.965Z,6.40
2022-11-28T19:39:17.430Z,6.40
2022-11-28T19:41:46.260Z,6.40
2022-11-28T19:44:16.587Z,6.40
2022-11-28T19:46:45.622Z,6.40
2022-11-28T19:49:18.896Z,6.40
2022-11-28T19:51:48.119Z,6.40
2022-11-28T19:54:16.741Z,6.40
2022-11-28T19:56:44.908Z,6.40
2022-11-28T19:59:15.007Z,6.40
2022-11-28T20:01:45.792Z,6.40
2022-11-28T20:04:15.330Z,6.40
2022-11-28T20:06:44.360Z,6.40
2022-11-28T20:09:13.990Z,6.40
2022-11-28T20:11:45.692Z,6.40
2022-11-28T20:14:17.428Z,6.40
2022-11-28T20:16:46.391Z,6.40
2022-11-28T20:19:17.798Z,6.40
2022-11-28T20:21:46.662Z,6.40
2022-11-28T20:24:16.511Z,6.40
2022-11-28T20:26:47.023Z,6.40
2022-11-28T20:29:18.856Z,6.40
2022-11-28T20:31:49.553Z,6.40
2022-11-28T20:34:19.123Z,6.40
2022-11-28T20:36:53.634Z,6.40
2022-11-28T20:39:22.199Z,6.40
2022-11-28T20:41:50.496Z,6.40
2022-11-28T20:44:20.456Z,6.40
2022-11-28T20:46:49.972Z,6.40
2022-11-28T20:49:18.537Z,6.40
2022-11-28T20:51:47.341Z,6.40
2022-11-28T20:54:15.850Z,6.40
2022-11-28T20:57:19.781Z,6.40
2022-11-28T20:59:34.619Z,6.40
2022-11-28T21:02:02.732Z,6.40
2022-11-28T21:04:30.881Z,6.40
2022-11-28T21:06:58.896Z,6.40
2022-11-28T21:09:27.045Z,6.40
2022-11-28T21:11:59.368Z,6.30
2022-11-28T21:14:29.024Z,6.40
2022-11-28T21:16:59.524Z,6.40
2022-11-28T21:19:27.702Z,6.40
2022-11-28T21:21:55.785Z,6.40
2022-11-28T21:24:23.911Z,6.40
2022-11-28T21:26:54.451Z,6.40
2022-11-28T21:29:24.415Z,6.40
2022-11-28T21:31:53.055Z,6.40
2022-11-28T21:34:22.865Z,6.40
2022-11-28T21:36:50.973Z,6.40
2022-11-28T21:39:21.819Z,6.40
2022-11-28T21:41:50.879Z,6.40
2022-11-28T21:44:19.133Z,6.40
2022-11-28T21:46:47.304Z,6.40
2022-11-28T21:49:15.641Z,6.40
2022-11-28T21:51:45.106Z,6.40
2022-11-28T21:54:13.673Z,6.40
2022-11-28T21:56:42.231Z,6.40
2022-11-28T21:59:11.211Z,6.40
2022-11-28T22:01:41.390Z,6.40
2022-11-28T22:04:11.530Z,6.40
2022-11-28T22:06:41.036Z,6.40
2022-11-28T22:09:10.972Z,6.40
2022-11-28T22:11:40.503Z,6.40
2022-11-28T22:14:08.984Z,6.40
2022-11-28T22:16:38.185Z,6.40
2022-11-28T22:19:06.739Z,6.40
2022-11-28T22:21:54.747Z,6.40
2022-11-28T22:24:26.357Z,6.40
2022-11-28T22:26:56.160Z,6.40
2022-11-28T22:29:25.147Z,6.40
2022-11-28T22:31:54.709Z,6.40
2022-11-28T22:34:24.135Z,6.40
2022-11-28T22:36:52.299Z,6.40
2022-11-28T22:39:21.815Z,6.40
2022-11-28T22:41:51.558Z,6.40
2022-11-28T22:44:21.693Z,6.40
2022-11-28T22:46:50.115Z,6.30
2022-11-28T22:49:19.902Z,6.40
2022-11-28T22:51:48.654Z,6.40
2022-11-28T22:54:16.952Z,6.30
2022-11-28T22:56:45.095Z,6.30
2022-11-28T22:59:16.350Z,6.40
2022-11-28T23:01:44.870Z,6.40
2022-11-28T23:04:13.855Z,6.40
2022-11-28T23:06:43.238Z,6.40
2022-11-28T23:09:14.164Z,6.30
2022-11-28T23:11:42.349Z,6.30
2022-11-28T23:14:13.146Z,6.40
2022-11-28T23:16:43.851Z,6.30
2022-11-28T23:19:13.894Z,6.30
2022-11-28T23:21:45.063Z,6.30
2022-11-28T23:24:15.641Z,6.30
2022-11-28T23:26:45.385Z,6.30
2022-11-28T23:29:15.292Z,6.30
2022-11-28T23:31:45.708Z,6.30
2022-11-28T23:34:14.766Z,6.30
2022-11-28T23:36:46.389Z,6.30
2022-11-28T23:39:16.003Z,6.30
2022-11-28T23:41:44.450Z,6.30
2022-11-28T23:44:13.438Z,6.30
2022-11-28T23:46:42.308Z,6.30
2022-11-28T23:49:12.285Z,6.30
2022-11-28T23:51:41.479Z,6.30
2022-11-28T23:54:10.811Z,6.30
2022-11-28T23:56:40.099Z,6.30
2022-11-28T23:59:10.290Z,6.30
